Terminal Aerodrome Forecast
Issued by NWS

Home | Current Version | Previous Version | Text Only | Print | Product List | Glossary On
Versions: 1 2 3 4 5 6 7 8 9 10 11 12 13 14 15 16
000
FTUS46 KSGX 061122
TAFCRQ
TAF
KCRQ 061122Z 0612/0712 VRB04KT P6SM FEW025 OVC035
     FM062000 24011KT P6SM FEW025 BKN035
     FM070200 VRB05KT P6SM BKN030
     FM070700 23010KT P6SM BKN035=

USA.gov is the U.S. government's official web portal to all federal, state and local government web resources and services.